Time;durP1;ratioP1;P1;durP2;ratioP2;P2;SDS_P1;SDS_P2;PMS_P1;PMS_P2;Temp;Humidity;BMP_temperature;BMP_pressure;BME280_temperature;BME280_humidity;BME280_pressure;Samples;Min_cycle;Max_cycle;Signal;HPM_P1;HPM_P2
2022/07/07 00:04:42;;;;;;;5.15;2.20;;;;;18.70;101700.00;;;;10458995;28;20216;-79
2022/07/07 00:09:44;;;;;;;2.60;1.95;;;;;18.70;101693.00;;;;10428044;28;20640;-79
2022/07/07 00:14:46;;;;;;;3.13;2.30;;;;;18.60;101702.00;;;;10467470;28;20185;-79
2022/07/07 00:19:48;;;;;;;3.83;1.95;;;;;18.60;101689.00;;;;10451764;28;20217;-79
2022/07/07 00:24:51;;;;;;;3.13;2.08;;;;;18.60;101693.00;;;;10485059;28;20251;-79
2022/07/07 00:29:52;;;;;;;2.80;1.90;;;;;18.60;101690.00;;;;10451074;28;20270;-79
2022/07/07 00:34:55;;;;;;;4.05;2.00;;;;;18.60;101688.00;;;;10468057;28;20269;-79
2022/07/07 00:39:57;;;;;;;4.03;2.42;;;;;18.60;101679.00;;;;10467723;28;20194;-79
2022/07/07 00:44:59;;;;;;;3.90;2.10;;;;;18.60;101678.00;;;;10451373;28;20263;-80
2022/07/07 00:50:01;;;;;;;2.60;1.73;;;;;18.60;101681.00;;;;10450589;28;20185;-78
2022/07/07 00:55:07;;;;;;;3.83;1.98;;;;;18.60;101682.00;;;;10450576;28;20190;-77
2022/07/07 01:00:15;;;;;;;2.22;1.90;;;;;18.60;101673.00;;;;10468593;28;20683;-77
2022/07/07 01:05:17;;;;;;;3.67;2.10;;;;;18.60;101666.00;;;;10430872;28;20202;-77
2022/07/07 01:10:19;;;;;;;4.30;2.15;;;;;18.60;101663.00;;;;10426343;28;20198;-78
2022/07/07 01:15:21;;;;;;;4.80;2.00;;;;;18.60;101658.00;;;;10425796;28;20197;-77
2022/07/07 01:20:25;;;;;;;4.35;2.25;;;;;18.60;101659.00;;;;10394123;28;20197;-77
2022/07/07 01:25:27;;;;;;;3.63;1.80;;;;;18.60;101642.00;;;;10425261;28;20202;-77
2022/07/07 01:30:29;;;;;;;4.00;2.13;;;;;18.60;101643.00;;;;10425277;28;20194;-77
2022/07/07 01:35:31;;;;;;;6.10;2.35;;;;;18.60;101642.00;;;;10448718;28;20236;-77
2022/07/07 01:40:33;;;;;;;4.47;2.08;;;;;18.50;101650.00;;;;10467085;28;20193;-77
2022/07/07 01:45:35;;;;;;;5.32;2.28;;;;;18.50;101653.00;;;;10469150;28;20292;-78
2022/07/07 01:50:37;;;;;;;3.95;2.17;;;;;18.50;101647.00;;;;10449016;28;20193;-77
2022/07/07 01:55:39;;;;;;;4.90;2.90;;;;;18.50;101642.00;;;;10433523;28;20193;-77
2022/07/07 02:00:41;;;;;;;3.28;2.30;;;;;18.40;101648.00;;;;10414749;28;20280;-77
2022/07/07 02:05:42;;;;;;;3.58;2.28;;;;;18.40;101642.00;;;;10405841;28;20214;-75
2022/07/07 02:16:05;;;;;;;3.13;2.60;;;;;18.40;101637.00;;;;10407882;28;20190;-77
2022/07/07 02:21:09;;;;;;;4.82;2.75;;;;;18.40;101631.00;;;;10422300;28;20218;-75
2022/07/07 02:26:12;;;;;;;4.50;3.17;;;;;18.40;101628.00;;;;10422503;28;20209;-77
2022/07/07 02:31:14;;;;;;;3.72;2.63;;;;;18.40;101626.00;;;;10424849;28;20210;-77
2022/07/07 02:36:19;;;;;;;5.10;2.92;;;;;18.40;101631.00;;;;10438563;28;20182;-77
2022/07/07 02:41:21;;;;;;;3.30;2.80;;;;;18.40;101628.00;;;;10423298;28;20194;-77
2022/07/07 02:46:23;;;;;;;5.90;3.10;;;;;18.30;101624.00;;;;10439289;28;20312;-77
2022/07/07 02:51:25;;;;;;;2.97;2.60;;;;;18.30;101624.00;;;;10405719;28;20198;-75
2022/07/07 02:56:27;;;;;;;3.65;2.65;;;;;18.30;101627.00;;;;10445339;28;20272;-75
2022/07/07 03:01:29;;;;;;;4.25;2.33;;;;;18.30;101617.00;;;;10462208;28;20209;-77
2022/07/07 03:06:31;;;;;;;5.05;2.70;;;;;18.30;101609.00;;;;10479926;28;20182;-78
2022/07/07 03:11:33;;;;;;;5.97;3.03;;;;;18.30;101628.00;;;;10479459;28;20237;-78
2022/07/07 03:16:35;;;;;;;5.13;3.22;;;;;18.20;101623.00;;;;10462920;28;20182;-77
2022/07/07 03:21:38;;;;;;;5.50;3.13;;;;;18.20;101629.00;;;;10446286;28;20679;-77
2022/07/07 03:26:40;;;;;;;5.22;3.05;;;;;18.20;101624.00;;;;10413633;28;20255;-77
2022/07/07 03:31:42;;;;;;;4.97;3.40;;;;;18.20;101625.00;;;;10429490;28;20254;-76
2022/07/07 03:36:44;;;;;;;3.97;3.05;;;;;18.20;101632.00;;;;10461681;28;20281;-77
2022/07/07 03:41:47;;;;;;;4.22;2.88;;;;;18.20;101629.00;;;;10463424;28;20192;-77
2022/07/07 03:46:49;;;;;;;7.28;3.47;;;;;18.20;101638.00;;;;10432710;28;20288;-78
2022/07/07 03:51:52;;;;;;;4.65;3.20;;;;;18.20;101640.00;;;;10471425;28;20244;-78
2022/07/07 03:56:54;;;;;;;4.95;2.75;;;;;18.20;101632.00;;;;10455132;28;20225;-78
2022/07/07 04:01:56;;;;;;;5.63;3.40;;;;;18.20;101640.00;;;;10461191;28;20214;-77
2022/07/07 04:06:59;;;;;;;5.40;2.55;;;;;18.20;101634.00;;;;10429585;28;20190;-77
2022/07/07 04:12:01;;;;;;;4.78;2.55;;;;;18.20;101638.00;;;;10430802;28;20209;-77
2022/07/07 04:17:03;;;;;;;5.90;1.83;;;;;18.20;101637.00;;;;10431127;28;20263;-77
2022/07/07 04:22:06;;;;;;;3.25;1.70;;;;;17.80;101651.00;;;;10453988;28;20210;-77
2022/07/07 04:27:10;;;;;;;3.53;2.25;;;;;16.80;101663.00;;;;10484828;28;20602;-77
2022/07/07 04:32:12;;;;;;;3.83;2.53;;;;;16.40;101679.00;;;;10452106;28;20702;-76
2022/07/07 04:37:14;;;;;;;3.20;2.40;;;;;16.20;101688.00;;;;10484560;28;20253;-76
2022/07/07 04:42:16;;;;;;;2.90;2.67;;;;;16.20;101682.00;;;;10484561;28;20844;-76
2022/07/07 04:47:18;;;;;;;6.40;2.60;;;;;16.30;101685.00;;;;10466972;28;20197;-77
2022/07/07 04:52:21;;;;;;;3.37;2.60;;;;;16.40;101685.00;;;;10468068;28;20221;-76
2022/07/07 04:57:23;;;;;;;3.80;2.63;;;;;16.60;101685.00;;;;10450302;28;20186;-76
2022/07/07 05:02:25;;;;;;;3.07;2.77;;;;;16.80;101693.00;;;;10454577;28;20293;-76
2022/07/07 05:07:27;;;;;;;4.30;2.80;;;;;16.90;101687.00;;;;10425998;28;20209;-77
2022/07/07 05:12:29;;;;;;;5.63;2.93;;;;;16.90;101682.00;;;;10460127;28;20240;-76
2022/07/07 05:17:31;;;;;;;2.57;2.30;;;;;17.30;101687.00;;;;10425263;28;20197;-77
2022/07/07 05:22:33;;;;;;;3.85;2.50;;;;;17.60;101681.00;;;;10425091;28;20218;-76
2022/07/07 05:27:35;;;;;;;3.17;2.40;;;;;17.60;101686.00;;;;10408835;28;20656;-77
2022/07/07 05:32:37;;;;;;;6.10;2.20;;;;;17.40;101682.00;;;;10430165;28;20260;-76
2022/07/07 05:37:41;;;;;;;5.50;2.25;;;;;17.30;101681.00;;;;10425371;28;20213;-77
2022/07/07 05:42:43;;;;;;;5.70;2.33;;;;;17.20;101673.00;;;;10407843;28;20209;-77
2022/07/07 05:47:45;;;;;;;3.90;2.30;;;;;16.70;101723.00;;;;10424265;28;20266;-77
2022/07/07 05:52:47;;;;;;;3.60;1.45;;;;;16.40;101746.00;;;;10440584;28;20187;-77
2022/07/07 05:57:49;;;;;;;2.83;1.17;;;;;16.40;101744.00;;;;10462346;28;20209;-76
2022/07/07 06:02:52;;;;;;;4.13;1.07;;;;;16.70;101757.00;;;;10430867;28;20213;-77
2022/07/07 06:07:55;;;;;;;1.07;0.83;;;;;17.10;101761.00;;;;10439091;28;20273;-76
2022/07/07 06:12:56;;;;;;;1.52;0.80;;;;;17.70;101753.00;;;;10406522;28;20183;-77
2022/07/07 06:18:00;;;;;;;2.15;0.80;;;;;18.10;101759.00;;;;10406157;28;20190;-77
2022/07/07 06:23:10;;;;;;;3.10;1.00;;;;;18.10;101763.00;;;;10438839;28;20198;-77
2022/07/07 06:28:12;;;;;;;3.55;0.70;;;;;18.40;101747.00;;;;10404983;28;20623;-77
2022/07/07 06:33:14;;;;;;;1.00;0.63;;;;;18.50;101759.00;;;;10442867;28;20197;-77
2022/07/07 06:38:16;;;;;;;1.00;0.60;;;;;19.00;101766.00;;;;10447510;28;20193;-77
2022/07/07 06:43:18;;;;;;;1.95;0.50;;;;;19.20;101754.00;;;;10462550;28;20213;-77
2022/07/07 06:48:20;;;;;;;1.10;0.68;;;;;19.00;101762.00;;;;10450894;28;20205;-76
2022/07/07 06:53:23;;;;;;;3.55;0.82;;;;;19.00;101754.00;;;;10445064;28;20205;-77
2022/07/07 06:58:26;;;;;;;2.42;0.88;;;;;20.00;101773.00;;;;10428914;28;20765;-77
2022/07/07 07:03:28;;;;;;;2.83;1.02;;;;;19.90;101765.00;;;;10461419;28;20747;-77
2022/07/07 07:08:31;;;;;;;4.85;0.88;;;;;20.00;101778.00;;;;10492966;28;20193;-77
2022/07/07 07:13:33;;;;;;;2.50;0.73;;;;;20.00;101780.00;;;;10420259;28;20244;-77
2022/07/07 07:18:35;;;;;;;4.63;1.00;;;;;20.40;101775.00;;;;10452538;28;20278;-77
2022/07/07 07:23:38;;;;;;;3.67;1.35;;;;;20.00;101794.00;;;;10427794;28;20211;-78
2022/07/07 07:28:40;;;;;;;3.22;1.23;;;;;21.30;101786.00;;;;10437622;28;20561;-77
2022/07/07 07:33:42;;;;;;;3.50;1.40;;;;;21.30;101785.00;;;;10425705;28;20213;-77
2022/07/07 07:38:44;;;;;;;4.50;1.38;;;;;20.50;101802.00;;;;10426073;28;20200;-77
2022/07/07 07:43:47;;;;;;;4.38;1.30;;;;;21.40;101808.00;;;;10446570;28;20235;-77
2022/07/07 07:48:51;;;;;;;7.72;1.35;;;;;20.80;101806.00;;;;10420260;28;20195;-77
2022/07/07 07:53:53;;;;;;;5.43;1.10;;;;;21.40;101816.00;;;;10422229;28;20264;-76
2022/07/07 07:58:55;;;;;;;5.85;1.13;;;;;21.50;101809.00;;;;10402906;28;20218;-77
2022/07/07 08:03:57;;;;;;;5.03;1.10;;;;;22.00;101803.00;;;;10463123;28;20210;-77
2022/07/07 08:08:59;;;;;;;2.47;0.90;;;;;20.90;101812.00;;;;10440210;28;20208;-78
2022/07/07 08:14:01;;;;;;;8.82;1.40;;;;;20.50;101816.00;;;;10446867;28;20221;-77
2022/07/07 08:19:03;;;;;;;2.70;1.05;;;;;21.30;101818.00;;;;10402511;28;20202;-77
2022/07/07 08:24:05;;;;;;;3.50;1.38;;;;;21.80;101824.00;;;;10436282;28;20219;-77
2022/07/07 08:29:07;;;;;;;3.33;0.95;;;;;20.60;101834.00;;;;10437143;28;20244;-76
2022/07/07 08:34:10;;;;;;;0.52;0.40;;;;;19.10;101852.00;;;;10436175;28;20211;-76
2022/07/07 08:39:13;;;;;;;3.92;1.00;;;;;18.40;101853.00;;;;10468269;28;20259;-76
2022/07/07 08:44:17;;;;;;;6.03;1.73;;;;;19.10;101864.00;;;;10468392;28;20318;-76
2022/07/07 08:49:20;;;;;;;8.20;2.00;;;;;19.80;101884.00;;;;10467839;28;20664;-77
2022/07/07 08:54:24;;;;;;;7.78;1.88;;;;;19.50;101895.00;;;;10467566;28;20276;-77
2022/07/07 08:59:27;;;;;;;3.92;1.23;;;;;18.60;101906.00;;;;10450668;28;20213;-77
2022/07/07 09:04:37;;;;;;;2.15;1.33;;;;;17.60;101919.00;;;;10449061;28;20201;-77
2022/07/07 09:09:44;;;;;;;3.30;1.00;;;;;17.20;101923.00;;;;10442153;28;20187;-76
2022/07/07 09:14:52;;;;;;;4.15;0.80;;;;;18.40;101919.00;;;;10409792;28;20221;-77
2022/07/07 09:20:06;;;;;;;3.33;1.00;;;;;19.90;101920.00;;;;10426180;28;20243;-77
2022/07/07 09:25:08;;;;;;;1.77;0.70;;;;;20.00;101928.00;;;;10425457;28;20233;-77
2022/07/07 09:30:11;;;;;;;2.13;0.90;;;;;18.90;101937.00;;;;10425289;28;20197;-76
2022/07/07 09:40:59;;;;;;;3.90;1.10;;;;;17.30;101970.00;;;;10482946;28;20668;-77
2022/07/07 09:46:13;;;;;;;3.53;0.70;;;;;18.00;101975.00;;;;10465163;28;20202;-77
2022/07/07 09:51:23;;;;;;;3.63;0.65;;;;;18.90;101966.00;;;;10464749;28;20186;-76
2022/07/07 09:56:34;;;;;;;1.77;0.50;;;;;19.30;101972.00;;;;10481050;28;20197;-77
2022/07/07 10:01:38;;;;;;;1.13;0.63;;;;;20.20;101975.00;;;;10458319;28;20210;-76
2022/07/07 10:06:43;;;;;;;2.58;0.85;;;;;21.70;101977.00;;;;10440226;28;20213;-77
2022/07/07 10:11:48;;;;;;;2.83;1.00;;;;;22.00;101979.00;;;;10407697;28;20194;-77
2022/07/07 10:16:52;;;;;;;2.58;1.20;;;;;22.10;101983.00;;;;10407665;28;20232;-76
2022/07/07 10:21:56;;;;;;;3.95;1.05;;;;;21.90;101997.00;;;;10440054;28;20190;-76
2022/07/07 10:27:00;;;;;;;2.03;0.80;;;;;20.10;102008.00;;;;10406587;28;20222;-77
2022/07/07 10:32:03;;;;;;;2.60;0.82;;;;;18.90;102017.00;;;;10423124;28;20564;-76
2022/07/07 10:37:07;;;;;;;5.15;0.90;;;;;17.90;102034.00;;;;10406093;28;20182;-77
2022/07/07 10:42:15;;;;;;;1.60;0.75;;;;;17.70;102047.00;;;;10438230;28;20259;-77
2022/07/07 10:47:17;;;;;;;4.88;1.40;;;;;18.80;102054.00;;;;10438777;28;20202;-76
2022/07/07 10:52:25;;;;;;;5.75;1.10;;;;;19.30;102050.00;;;;10437976;28;20258;-77
2022/07/07 10:57:40;;;;;;;2.40;0.82;;;;;20.60;102048.00;;;;10462533;28;20221;-76
2022/07/07 11:02:44;;;;;;;3.13;0.90;;;;;23.10;102033.00;;;;10477313;28;20276;-76
2022/07/07 11:07:55;;;;;;;2.15;0.60;;;;;23.30;102044.00;;;;10446372;28;20250;-76
2022/07/07 11:13:13;;;;;;;1.85;0.80;;;;;23.90;102037.00;;;;10446975;28;20273;-76
2022/07/07 11:18:17;;;;;;;2.67;1.02;;;;;21.40;102065.00;;;;10463373;28;20289;-76
2022/07/07 11:23:21;;;;;;;1.83;0.70;;;;;20.40;102075.00;;;;10497604;28;20266;-77
2022/07/07 11:28:25;;;;;;;2.13;0.73;;;;;21.50;102070.00;;;;10429592;28;20202;-77
2022/07/07 11:33:27;;;;;;;1.75;0.70;;;;;23.00;102063.00;;;;10420821;28;20616;-76
2022/07/07 11:38:31;;;;;;;1.60;0.70;;;;;24.60;102060.00;;;;10421413;28;20189;-77
2022/07/07 11:43:33;;;;;;;1.08;0.70;;;;;24.10;102073.00;;;;10421248;28;20256;-77
2022/07/07 11:48:41;;;;;;;1.55;0.77;;;;;23.10;102082.00;;;;10405006;28;20186;-77
2022/07/07 11:53:43;;;;;;;1.83;0.90;;;;;21.60;102070.00;;;;10388824;28;20240;-77
2022/07/07 11:58:56;;;;;;;1.50;0.63;;;;;21.20;102076.00;;;;10420928;28;20316;-77
2022/07/07 12:04:01;;;;;;;2.42;0.93;;;;;21.90;102080.00;;;;10446214;28;20209;-77
2022/07/07 12:09:04;;;;;;;3.20;0.90;;;;;23.10;102089.00;;;;10483440;28;20182;-77
2022/07/07 12:14:07;;;;;;;2.63;0.85;;;;;22.40;102097.00;;;;10437087;28;20197;-77
2022/07/07 12:19:09;;;;;;;7.63;0.90;;;;;21.30;102105.00;;;;10453527;28;20193;-76
2022/07/07 12:24:16;;;;;;;6.25;1.27;;;;;20.10;102102.00;;;;10453100;28;20205;-77
2022/07/07 12:29:20;;;;;;;3.30;1.13;;;;;21.10;102106.00;;;;10452804;28;20193;-77
2022/07/07 12:34:23;;;;;;;4.70;1.27;;;;;22.00;102105.00;;;;10469232;28;20194;-77
2022/07/07 12:39:25;;;;;;;3.80;1.13;;;;;21.40;102116.00;;;;10468434;28;20186;-77
2022/07/07 12:44:31;;;;;;;3.03;0.93;;;;;20.70;102117.00;;;;10468947;28;20592;-77
2022/07/07 12:49:54;;;;;;;4.55;1.45;;;;;21.10;102126.00;;;;10455567;28;20228;-77
2022/07/07 12:55:14;;;;;;;3.75;1.15;;;;;21.90;102112.00;;;;10485264;28;20190;-77
2022/07/07 13:00:26;;;;;;;5.55;1.15;;;;;21.70;102119.00;;;;10434927;28;20221;-77
2022/07/07 13:05:28;;;;;;;4.55;1.30;;;;;21.90;102131.00;;;;10467924;28;20202;-77
2022/07/07 13:10:30;;;;;;;3.55;1.00;;;;;22.50;102142.00;;;;10451567;28;20190;-77
2022/07/07 13:15:32;;;;;;;3.35;1.00;;;;;22.10;102159.00;;;;10467415;28;20304;-77
2022/07/07 13:20:35;;;;;;;3.85;1.27;;;;;21.10;102158.00;;;;10451001;28;20198;-77
2022/07/07 13:25:37;;;;;;;3.15;1.40;;;;;21.50;102165.00;;;;10434381;28;20251;-77
2022/07/07 13:30:39;;;;;;;2.70;1.15;;;;;21.80;102178.00;;;;10467513;28;20661;-77
2022/07/07 13:35:41;;;;;;;6.90;1.80;;;;;20.80;102174.00;;;;10442795;28;20190;-77
2022/07/07 13:40:43;;;;;;;5.05;0.93;;;;;21.30;102191.00;;;;10459054;28;20278;-77
2022/07/07 13:45:52;;;;;;;2.35;0.95;;;;;21.80;102191.00;;;;10455932;28;20266;-77
2022/07/07 13:50:54;;;;;;;4.45;0.90;;;;;21.60;102196.00;;;;10500434;28;20194;-77
2022/07/07 13:55:56;;;;;;;3.53;1.05;;;;;22.40;102191.00;;;;10465883;28;20726;-77
2022/07/07 14:00:58;;;;;;;4.32;1.35;;;;;23.20;102191.00;;;;10480848;28;20259;-77
2022/07/07 14:06:00;;;;;;;4.85;1.50;;;;;23.50;102193.00;;;;10391957;28;20210;-77
2022/07/07 14:11:05;;;;;;;5.28;1.30;;;;;24.10;102192.00;;;;10492096;28;20205;-77
2022/07/07 14:16:07;;;;;;;7.60;1.92;;;;;24.60;102165.00;;;;10465732;28;20251;-77
2022/07/07 14:21:10;;;;;;;5.65;1.75;;;;;24.90;102178.00;;;;10463947;28;20251;-77
2022/07/07 14:26:12;;;;;;;6.65;2.00;;;;;24.50;102199.00;;;;10481019;28;20206;-77
2022/07/07 14:31:14;;;;;;;6.70;1.83;;;;;26.50;102184.00;;;;10496810;28;20209;-77
2022/07/07 14:36:16;;;;;;;5.30;1.67;;;;;29.60;102189.00;;;;10479014;28;20173;-75
2022/07/07 14:41:18;;;;;;;7.88;1.95;;;;;25.40;102197.00;;;;10445681;28;20201;-75
2022/07/07 14:46:20;;;;;;;8.70;1.67;;;;;29.80;102183.00;;;;10462878;28;20265;-77
2022/07/07 14:51:22;;;;;;;8.80;2.03;;;;;30.90;102192.00;;;;10480436;28;20549;-77
2022/07/07 14:56:24;;;;;;;10.38;2.20;;;;;29.10;102202.00;;;;10463432;28;20185;-77
2022/07/07 15:01:26;;;;;;;12.05;2.67;;;;;30.80;102176.00;;;;10444576;28;20260;-74
2022/07/07 15:06:32;;;;;;;3.28;1.63;;;;;28.70;102209.00;;;;10461308;28;20205;-74
2022/07/07 15:11:34;;;;;;;5.68;2.10;;;;;29.60;102198.00;;;;10460817;28;20194;-74
2022/07/07 15:16:36;;;;;;;6.57;2.05;;;;;31.00;102201.00;;;;10420041;28;20186;-74
2022/07/07 15:21:38;;;;;;;6.13;1.50;;;;;33.20;102203.00;;;;10421509;28;20614;-75
2022/07/07 15:26:40;;;;;;;3.97;1.30;;;;;33.30;102206.00;;;;10460309;28;20303;-74
2022/07/07 15:31:45;;;;;;;8.20;1.67;;;;;31.90;102204.00;;;;10495756;28;20592;-75
2022/07/07 15:36:47;;;;;;;5.35;1.80;;;;;29.70;102238.00;;;;10461947;28;20877;-76
2022/07/07 15:41:49;;;;;;;5.03;1.30;;;;;25.40;102225.00;;;;10437553;28;20193;-77
2022/07/07 15:46:52;;;;;;;7.38;1.60;;;;;22.30;102238.00;;;;10457800;28;20197;-77
2022/07/07 15:51:54;;;;;;;8.75;1.85;;;;;23.20;102241.00;;;;10448470;28;20212;-77
2022/07/07 15:56:56;;;;;;;5.55;1.48;;;;;22.50;102239.00;;;;10460280;28;20192;-77
2022/07/07 16:01:58;;;;;;;5.88;2.38;;;;;21.70;102253.00;;;;10436961;28;20248;-77
2022/07/07 16:07:02;;;;;;;5.10;1.52;;;;;21.50;102245.00;;;;10467666;28;20244;-77
2022/07/07 16:12:08;;;;;;;6.47;1.10;;;;;21.30;102248.00;;;;10410834;28;20233;-76
2022/07/07 16:17:10;;;;;;;6.07;1.70;;;;;21.40;102251.00;;;;10425935;28;20640;-77
2022/07/07 16:22:12;;;;;;;5.30;1.35;;;;;20.60;102255.00;;;;10443258;28;20182;-76
2022/07/07 16:27:14;;;;;;;6.00;1.58;;;;;20.60;102261.00;;;;10443186;28;20275;-76
2022/07/07 16:32:16;;;;;;;7.78;1.58;;;;;20.80;102256.00;;;;10472760;28;20281;-76
2022/07/07 16:37:18;;;;;;;5.60;1.58;;;;;20.10;102279.00;;;;10450891;28;20274;-76
2022/07/07 16:42:20;;;;;;;5.93;1.58;;;;;19.70;102269.00;;;;10467016;28;20393;-76
2022/07/07 16:47:22;;;;;;;9.07;2.00;;;;;19.80;102256.00;;;;10434270;28;20236;-76
2022/07/07 16:52:31;;;;;;;10.95;2.08;;;;;20.30;102257.00;;;;10465396;28;20198;-76
2022/07/07 16:57:33;;;;;;;7.18;1.98;;;;;20.60;102267.00;;;;10466347;28;20227;-76
2022/07/07 17:02:35;;;;;;;8.15;1.77;;;;;20.40;102264.00;;;;10436241;28;20198;-76
2022/07/07 17:07:37;;;;;;;5.10;1.35;;;;;20.10;102275.00;;;;10447685;28;20208;-76
2022/07/07 17:12:39;;;;;;;5.55;2.05;;;;;19.80;102273.00;;;;10482010;28;20209;-76
2022/07/07 17:17:42;;;;;;;5.20;2.08;;;;;19.70;102290.00;;;;10465315;28;20756;-75
2022/07/07 17:22:52;;;;;;;9.45;2.70;;;;;19.40;102301.00;;;;10466452;28;20193;-76
2022/07/07 17:27:55;;;;;;;11.23;2.20;;;;;19.10;102302.00;;;;10432263;28;20221;-76
2022/07/07 17:32:58;;;;;;;12.30;2.33;;;;;18.80;102317.00;;;;10446439;28;20231;-76
2022/07/07 17:38:00;;;;;;;7.63;1.85;;;;;18.60;102323.00;;;;10407580;28;20193;-75
2022/07/07 17:43:02;;;;;;;9.00;2.08;;;;;18.40;102332.00;;;;10406696;28;20194;-76
2022/07/07 17:48:04;;;;;;;12.07;2.95;;;;;18.10;102328.00;;;;10406980;28;20628;-76
2022/07/07 17:53:07;;;;;;;11.52;2.00;;;;;17.80;102330.00;;;;10406579;28;20617;-76
2022/07/07 17:58:11;;;;;;;13.40;2.28;;;;;17.80;102340.00;;;;10407338;28;20214;-76
2022/07/07 18:03:13;;;;;;;8.00;1.88;;;;;17.70;102347.00;;;;10457963;28;20243;-76
2022/07/07 18:08:15;;;;;;;7.50;2.22;;;;;17.60;102345.00;;;;10445937;28;20206;-76
2022/07/07 18:13:17;;;;;;;6.32;1.60;;;;;17.50;102348.00;;;;10430385;28;20280;-76
2022/07/07 18:18:19;;;;;;;9.20;1.85;;;;;17.60;102343.00;;;;10479779;28;20216;-76
2022/07/07 18:23:21;;;;;;;7.97;1.98;;;;;17.80;102328.00;;;;10463246;28;20187;-76
2022/07/07 18:28:23;;;;;;;11.30;1.95;;;;;17.50;102344.00;;;;10462397;28;20705;-75
2022/07/07 18:33:25;;;;;;;13.70;2.00;;;;;17.40;102346.00;;;;10440171;28;20569;-75
2022/07/07 18:38:28;;;;;;;11.35;2.47;;;;;17.20;102351.00;;;;10442119;28;20691;-76
2022/07/07 18:43:30;;;;;;;8.90;1.55;;;;;17.20;102359.00;;;;10478794;28;20607;-76
2022/07/07 18:48:33;;;;;;;6.72;2.05;;;;;17.10;102365.00;;;;10445615;28;20700;-76
2022/07/07 18:53:35;;;;;;;9.43;1.63;;;;;16.90;102373.00;;;;10461570;28;20192;-76
2022/07/07 18:58:38;;;;;;;5.78;1.80;;;;;16.90;102370.00;;;;10477921;28;20205;-76
2022/07/07 19:03:40;;;;;;;11.18;2.85;;;;;16.90;102378.00;;;;10426743;28;20194;-75
2022/07/07 19:08:42;;;;;;;4.75;1.70;;;;;16.90;102372.00;;;;10445299;28;20254;-76
2022/07/07 19:13:44;;;;;;;8.30;1.65;;;;;16.80;102388.00;;;;10445313;28;20204;-75
2022/07/07 19:18:46;;;;;;;10.50;1.70;;;;;16.80;102397.00;;;;10461095;28;20185;-76
2022/07/07 19:23:48;;;;;;;9.45;1.85;;;;;16.80;102396.00;;;;10445111;28;20205;-76
2022/07/07 19:28:50;;;;;;;6.28;1.55;;;;;16.60;102406.00;;;;10461257;28;20210;-76
2022/07/07 19:33:53;;;;;;;11.15;1.85;;;;;16.50;102415.00;;;;10418881;28;20607;-76
2022/07/07 19:38:55;;;;;;;5.20;1.40;;;;;16.50;102419.00;;;;10403607;28;20190;-76
2022/07/07 19:43:57;;;;;;;8.27;2.10;;;;;16.40;102420.00;;;;10419283;28;20198;-76
2022/07/07 19:48:59;;;;;;;9.00;1.83;;;;;16.30;102428.00;;;;10419746;28;20221;-75
2022/07/07 19:54:01;;;;;;;7.00;2.27;;;;;16.20;102429.00;;;;10403335;28;20192;-77
2022/07/07 19:59:04;;;;;;;8.10;1.93;;;;;16.10;102443.00;;;;10403154;28;20218;-75
2022/07/07 20:04:19;;;;;;;5.97;1.90;;;;;16.00;102458.00;;;;10422593;28;20287;-76
2022/07/07 20:09:22;;;;;;;8.00;2.03;;;;;16.00;102465.00;;;;10453243;28;20236;-75
2022/07/07 20:14:26;;;;;;;7.90;1.67;;;;;16.00;102466.00;;;;10435294;28;20218;-76
2022/07/07 20:19:29;;;;;;;7.10;1.87;;;;;15.90;102470.00;;;;10435766;28;20336;-76
2022/07/07 20:24:38;;;;;;;10.00;2.53;;;;;15.80;102471.00;;;;10418731;28;20205;-76
2022/07/07 20:29:40;;;;;;;8.97;1.77;;;;;15.70;102472.00;;;;10422518;28;20206;-75
2022/07/07 20:34:42;;;;;;;4.50;1.43;;;;;15.60;102482.00;;;;10443085;28;20197;-76
2022/07/07 20:39:44;;;;;;;3.03;1.57;;;;;15.60;102479.00;;;;10451553;28;20250;-76
2022/07/07 20:44:46;;;;;;;7.23;2.00;;;;;15.60;102485.00;;;;10467279;28;20201;-76
2022/07/07 20:49:48;;;;;;;5.40;1.70;;;;;15.60;102497.00;;;;10481567;28;20659;-76
2022/07/07 20:54:50;;;;;;;6.57;2.43;;;;;15.60;102500.00;;;;10483882;28;20186;-76
2022/07/07 20:59:53;;;;;;;9.37;1.93;;;;;15.60;102498.00;;;;10484137;28;20214;-77
2022/07/07 21:04:55;;;;;;;11.87;2.07;;;;;15.70;102500.00;;;;10435494;28;20245;-77
2022/07/07 21:09:57;;;;;;;8.33;2.27;;;;;15.70;102508.00;;;;10427601;28;20221;-77
2022/07/07 21:14:59;;;;;;;14.43;3.07;;;;;15.70;102504.00;;;;10431542;28;20190;-77
2022/07/07 21:20:02;;;;;;;11.40;2.37;;;;;15.70;102522.00;;;;10433732;28;20226;-77
2022/07/07 21:25:06;;;;;;;10.97;2.30;;;;;15.60;102526.00;;;;10449464;28;20206;-77
2022/07/07 21:30:09;;;;;;;10.00;2.23;;;;;15.60;102527.00;;;;10465756;28;20197;-77
2022/07/07 21:35:11;;;;;;;9.83;2.20;;;;;15.60;102537.00;;;;10466233;28;20181;-76
2022/07/07 21:40:13;;;;;;;10.03;1.80;;;;;15.50;102527.00;;;;10448355;28;20200;-77
2022/07/07 21:45:16;;;;;;;12.07;2.30;;;;;15.50;102531.00;;;;10481017;28;20206;-76
2022/07/07 21:50:18;;;;;;;9.73;2.00;;;;;15.40;102536.00;;;;10464800;28;20597;-76
2022/07/07 21:55:21;;;;;;;9.43;2.40;;;;;15.30;102549.00;;;;10476224;28;20221;-77
2022/07/07 22:00:26;;;;;;;14.07;2.40;;;;;15.30;102544.00;;;;10422908;28;20632;-77
2022/07/07 22:10:50;;;;;;;8.87;3.00;;;;;15.20;102547.00;;;;10482511;28;20231;-77
2022/07/07 22:15:52;;;;;;;7.87;2.07;;;;;15.10;102564.00;;;;10465910;28;20189;-77
2022/07/07 22:20:54;;;;;;;8.87;2.30;;;;;15.20;102566.00;;;;10449339;28;20200;-77
2022/07/07 22:25:58;;;;;;;8.87;2.23;;;;;15.10;102576.00;;;;10432517;28;20300;-77
2022/07/07 22:31:00;;;;;;;10.17;2.33;;;;;15.20;102568.00;;;;10462615;28;20197;-77
2022/07/07 22:36:02;;;;;;;9.87;2.60;;;;;15.20;102566.00;;;;10423971;28;20252;-77
2022/07/07 22:41:05;;;;;;;4.47;1.80;;;;;15.20;102567.00;;;;10406617;28;20236;-77
2022/07/07 22:46:07;;;;;;;10.70;2.03;;;;;15.10;102566.00;;;;10405769;28;20210;-76
2022/07/07 22:51:10;;;;;;;10.17;2.23;;;;;15.10;102587.00;;;;10404304;28;20224;-76
2022/07/07 22:56:12;;;;;;;10.87;2.27;;;;;15.00;102586.00;;;;10448837;28;20198;-77
2022/07/07 23:01:14;;;;;;;8.13;2.33;;;;;14.90;102580.00;;;;10457274;28;20229;-76
2022/07/07 23:06:16;;;;;;;8.63;2.20;;;;;14.80;102578.00;;;;10455460;28;20304;-76
2022/07/07 23:11:18;;;;;;;8.00;2.50;;;;;14.60;102588.00;;;;10461479;28;20221;-76
2022/07/07 23:16:20;;;;;;;7.83;2.63;;;;;14.30;102589.00;;;;10461907;28;20257;-76
2022/07/07 23:21:23;;;;;;;12.33;2.90;;;;;14.10;102582.00;;;;10444972;28;20648;-76
2022/07/07 23:26:25;;;;;;;12.53;2.93;;;;;13.90;102593.00;;;;10444462;28;20205;-76
2022/07/07 23:31:28;;;;;;;10.47;3.07;;;;;13.80;102592.00;;;;10444563;28;20205;-76
2022/07/07 23:36:30;;;;;;;7.80;2.93;;;;;13.80;102601.00;;;;10477944;28;20190;-76
2022/07/07 23:41:32;;;;;;;9.07;2.73;;;;;13.90;102599.00;;;;10444867;28;20276;-76
2022/07/07 23:46:34;;;;;;;13.07;3.00;;;;;14.00;102600.00;;;;10460345;28;20206;-76
2022/07/07 23:51:36;;;;;;;6.10;2.43;;;;;14.10;102599.00;;;;10461003;28;20239;-76
2022/07/07 23:56:38;;;;;;;5.40;2.30;;;;;14.00;102591.00;;;;10428837;28;20534;-77
